Time;durP1;ratioP1;P1;durP2;ratioP2;P2;SDS_P1;SDS_P2;PMS_P1;PMS_P2;Temp;Humidity;BMP_temperature;BMP_pressure;BME280_temperature;BME280_humidity;BME280_pressure;Samples;Min_cycle;Max_cycle;Signal;HPM_P1;HPM_P2
2022/02/14 00:00:23;;;;;;;13.95;8.57;;;;;;;3.62;61.56;99015.34;10308571;28;20189;-72
2022/02/14 00:05:25;;;;;;;13.50;7.53;;;;;;;3.70;61.28;99009.84;10305530;28;20456;-72
2022/02/14 00:10:27;;;;;;;15.55;7.30;;;;;;;3.81;61.01;99002.41;10307066;28;20054;-72
2022/02/14 00:15:29;;;;;;;13.25;7.30;;;;;;;3.89;60.67;98995.16;10328704;28;20749;-72
2022/02/14 00:20:31;;;;;;;16.48;8.07;;;;;;;3.85;60.65;98991.88;10307837;28;20165;-71
2022/02/14 00:25:32;;;;;;;13.93;7.63;;;;;;;3.92;60.48;98983.81;10307443;28;20053;-71
2022/02/14 00:30:35;;;;;;;12.40;7.45;;;;;;;3.79;60.40;98978.34;10308593;28;20070;-72
2022/02/14 00:35:36;;;;;;;12.05;7.55;;;;;;;3.71;60.59;98981.31;10312384;28;20497;-71
2022/02/14 00:40:38;;;;;;;13.23;7.55;;;;;;;3.56;60.73;98968.25;10322450;28;20058;-72
2022/02/14 00:45:40;;;;;;;14.88;8.38;;;;;;;3.43;60.68;98969.75;10310793;28;20499;-70
2022/02/14 00:50:42;;;;;;;21.02;9.77;;;;;;;3.30;61.08;98966.88;10310118;28;20054;-71
2022/02/14 00:55:44;;;;;;;17.20;9.77;;;;;;;3.16;61.25;98965.81;10307299;28;20076;-71
2022/02/14 01:00:46;;;;;;;14.98;8.27;;;;;;;2.97;61.48;98958.03;10307046;28;20129;-71
2022/02/14 01:05:48;;;;;;;16.02;8.75;;;;;;;3.12;61.09;98951.38;10306858;28;20128;-71
2022/02/14 01:10:51;;;;;;;10.85;7.20;;;;;;;2.96;61.29;98946.91;10306213;28;20062;-71
2022/02/14 01:15:53;;;;;;;12.15;6.90;;;;;;;2.84;61.74;98946.59;10306204;28;20054;-70
2022/02/14 01:20:54;;;;;;;11.30;6.80;;;;;;;2.68;61.91;98940.44;10313655;28;20137;-72
2022/02/14 01:25:56;;;;;;;14.77;6.65;;;;;;;2.69;62.04;98931.78;10314555;28;20050;-71
2022/02/14 01:30:58;;;;;;;14.77;6.72;;;;;;;2.67;61.83;98931.00;10305526;28;20149;-71
2022/02/14 01:36:00;;;;;;;12.82;6.65;;;;;;;2.61;62.00;98924.38;10305041;28;20058;-71
2022/02/14 01:41:01;;;;;;;12.18;6.97;;;;;;;2.46;62.41;98922.44;10309663;28;20042;-71
2022/02/14 01:46:03;;;;;;;12.63;7.15;;;;;;;2.42;62.45;98910.56;10305501;28;20073;-70
2022/02/14 01:51:05;;;;;;;12.52;6.95;;;;;;;2.46;62.26;98901.78;10313631;28;20048;-71
2022/02/14 01:56:07;;;;;;;12.90;6.68;;;;;;;2.45;62.25;98902.72;10304359;28;20101;-70
2022/02/14 02:01:09;;;;;;;12.18;7.05;;;;;;;2.38;62.59;98901.28;10301064;28;20056;-71
2022/02/14 02:06:11;;;;;;;15.13;7.57;;;;;;;2.30;62.83;98885.31;10304355;28;20054;-71
2022/02/14 02:16:33;;;;;;;15.48;7.22;;;;;;;2.26;62.92;98870.84;10303254;28;20072;-70
2022/02/14 02:21:35;;;;;;;10.85;7.00;;;;;;;2.13;63.05;98864.56;10304742;28;20058;-70
2022/02/14 02:26:37;;;;;;;13.27;7.03;;;;;;;2.10;63.07;98856.94;10304226;28;20133;-71
2022/02/14 02:31:39;;;;;;;17.90;7.45;;;;;;;1.93;63.20;98854.25;10318546;28;20062;-70
2022/02/14 02:36:52;;;;;;;13.52;7.05;;;;;;;1.89;63.67;98858.69;10303048;28;20060;-69
2022/02/14 02:41:56;;;;;;;11.40;6.50;;;;;;;1.90;63.54;98846.63;10305844;28;20080;-71
2022/02/14 02:46:57;;;;;;;12.23;7.03;;;;;;;1.92;63.47;98827.63;10310832;28;20125;-71
2022/02/14 02:52:00;;;;;;;12.85;5.93;;;;;;;1.91;63.66;98838.03;10313712;28;20054;-70
2022/02/14 02:57:03;;;;;;;14.40;6.25;;;;;;;1.98;63.69;98823.94;10329131;28;20690;-70
2022/02/14 03:02:06;;;;;;;12.23;6.07;;;;;;;1.98;63.51;98818.78;10315567;28;20046;-72
2022/02/14 03:07:08;;;;;;;11.38;5.63;;;;;;;1.94;63.46;98809.50;10319101;28;20038;-71
2022/02/14 03:12:10;;;;;;;10.55;6.05;;;;;;;1.91;63.60;98815.63;10320635;28;20054;-71
2022/02/14 03:17:12;;;;;;;11.13;6.85;;;;;;;1.74;63.77;98797.47;10319362;28;20453;-70
2022/02/14 03:22:14;;;;;;;11.68;7.18;;;;;;;1.68;63.97;98794.31;10318967;28;20590;-71
2022/02/14 03:27:15;;;;;;;20.70;10.10;;;;;;;1.55;64.06;98791.41;10319888;28;20137;-71
2022/02/14 03:32:17;;;;;;;15.98;8.30;;;;;;;1.54;64.13;98783.75;10318929;28;20076;-71
2022/02/14 03:37:19;;;;;;;12.95;7.35;;;;;;;1.43;64.31;98791.91;10331426;28;20046;-73
2022/02/14 03:42:21;;;;;;;14.63;7.20;;;;;;;1.44;64.38;98779.88;10318664;28;20054;-71
2022/02/14 03:47:22;;;;;;;12.45;6.68;;;;;;;1.41;64.56;98773.09;10316304;28;20125;-73
2022/02/14 03:52:24;;;;;;;11.63;7.03;;;;;;;1.27;64.58;98772.84;10316569;28;20409;-72
2022/02/14 03:57:26;;;;;;;11.38;6.85;;;;;;;1.14;64.99;98769.06;10320576;28;20054;-71
2022/02/14 04:02:27;;;;;;;10.85;5.97;;;;;;;1.18;64.91;98757.75;10315393;28;20050;-71
2022/02/14 04:07:29;;;;;;;12.32;6.18;;;;;;;1.24;64.97;98758.34;10311879;28;20047;-71
2022/02/14 04:12:31;;;;;;;11.55;6.28;;;;;;;1.23;64.89;98756.69;10311573;28;20532;-70
2022/02/14 04:17:33;;;;;;;11.73;5.97;;;;;;;1.23;65.03;98756.69;10324135;28;20052;-72
2022/02/14 04:22:37;;;;;;;13.02;7.00;;;;;;;1.21;65.14;98753.34;10315829;28;20050;-70
2022/02/14 04:27:41;;;;;;;10.75;5.93;;;;;;;1.24;65.16;98749.78;10309462;28;20541;-71
2022/02/14 04:32:42;;;;;;;8.10;5.35;;;;;;;1.30;65.18;98742.63;10323510;28;20054;-71
2022/02/14 04:37:44;;;;;;;11.50;5.97;;;;;;;1.38;64.87;98738.00;10308203;28;20517;-70
2022/02/14 04:42:47;;;;;;;13.52;6.13;;;;;;;1.32;65.01;98737.41;10310925;28;20042;-70
2022/02/14 04:47:49;;;;;;;11.32;6.40;;;;;;;1.24;65.06;98745.47;10309087;28;20569;-69
2022/02/14 04:52:51;;;;;;;11.43;5.95;;;;;;;1.25;65.22;98754.88;10307315;28;20575;-69
2022/02/14 04:57:53;;;;;;;9.93;6.07;;;;;;;1.20;65.34;98751.63;10322913;28;20153;-69
2022/02/14 05:02:55;;;;;;;16.15;6.95;;;;;;;1.20;65.32;98755.94;10308013;28;20053;-69
2022/02/14 05:07:57;;;;;;;11.95;7.00;;;;;;;1.14;65.22;98745.91;10325994;28;20046;-69
2022/02/14 05:12:58;;;;;;;13.50;6.80;;;;;;;1.11;65.33;98740.88;10322196;28;20054;-70
2022/02/14 05:18:00;;;;;;;14.98;6.50;;;;;;;0.98;65.59;98735.38;10306623;28;20066;-69
2022/02/14 05:23:02;;;;;;;10.15;6.13;;;;;;;1.04;65.76;98742.00;10305218;28;20050;-70
2022/02/14 05:28:08;;;;;;;13.30;6.25;;;;;;;1.14;65.72;98736.44;10308287;28;20072;-69
2022/02/14 05:33:10;;;;;;;13.35;6.70;;;;;;;1.20;65.52;98741.34;10305133;28;20068;-70
2022/02/14 05:38:11;;;;;;;11.60;6.88;;;;;;;1.32;65.50;98753.72;10309816;28;20064;-69
2022/02/14 05:43:14;;;;;;;24.88;15.05;;;;;;;1.42;65.31;98743.84;10306819;28;20060;-70
2022/02/14 05:48:16;;;;;;;15.93;9.70;;;;;;;1.64;65.23;98738.66;10316986;28;20089;-70
2022/02/14 05:53:18;;;;;;;13.23;7.43;;;;;;;1.74;65.14;98743.34;10303416;28;20123;-70
2022/02/14 05:58:19;;;;;;;13.05;6.72;;;;;;;1.84;65.23;98739.47;10304895;28;20058;-69
2022/02/14 06:03:21;;;;;;;13.07;8.27;;;;;;;1.92;65.09;98727.09;10305542;28;20133;-69
2022/02/14 06:08:23;;;;;;;14.88;8.45;;;;;;;1.96;65.27;98733.78;10302686;28;20048;-69
2022/02/14 06:13:24;;;;;;;16.50;8.70;;;;;;;2.07;65.28;98726.38;10308654;28;20042;-70
2022/02/14 06:18:27;;;;;;;11.73;6.65;;;;;;;2.28;65.13;98731.50;10317125;28;20526;-68
2022/02/14 06:23:29;;;;;;;13.05;7.53;;;;;;;2.39;64.90;98729.28;10314658;28;20248;-69
2022/02/14 06:28:37;;;;;;;11.48;7.38;;;;;;;2.44;64.92;98730.72;10268387;28;1192407;-70
2022/02/14 06:33:39;;;;;;;15.55;9.38;;;;;;;2.59;64.74;98735.19;10304317;28;20046;-70
2022/02/14 06:38:41;;;;;;;13.80;7.43;;;;;;;2.69;64.63;98728.69;10305140;28;20463;-69
2022/02/14 06:43:43;;;;;;;10.73;6.38;;;;;;;2.83;64.39;98723.72;10307811;28;20051;-70
2022/02/14 06:48:44;;;;;;;10.88;6.50;;;;;;;2.74;64.47;98711.25;10304374;28;20081;-70
2022/02/14 06:53:47;;;;;;;10.90;6.15;;;;;;;2.85;64.48;98711.56;10305103;28;20369;-69
2022/02/14 06:58:49;;;;;;;11.82;6.80;;;;;;;2.82;64.26;98716.03;10304603;28;20060;-70
2022/02/14 07:03:51;;;;;;;11.48;7.10;;;;;;;2.84;64.41;98711.63;10307310;28;20052;-69
2022/02/14 07:08:53;;;;;;;11.18;6.60;;;;;;;2.92;64.34;98712.94;10305055;28;20144;-70
2022/02/14 07:13:57;;;;;;;14.43;6.90;;;;;;;3.13;64.37;98711.03;10310683;28;20133;-70
2022/02/14 07:18:59;;;;;;;10.48;6.70;;;;;;;3.24;64.15;98705.34;10302336;28;20046;-70
2022/02/14 07:24:00;;;;;;;15.05;7.50;;;;;;;3.32;63.97;98700.66;10306014;28;20525;-70
2022/02/14 07:29:02;;;;;;;11.27;6.28;;;;;;;3.38;64.07;98701.19;10307666;28;20104;-70
2022/02/14 07:34:04;;;;;;;13.32;5.93;;;;;;;3.54;64.23;98707.25;10311862;28;20140;-69
2022/02/14 07:39:06;;;;;;;11.85;5.50;;;;;;;3.61;64.24;98702.59;10311464;28;20050;-69
2022/02/14 07:44:07;;;;;;;10.35;5.95;;;;;;;3.92;64.15;98702.75;10312606;28;20057;-69
2022/02/14 07:49:09;;;;;;;9.48;5.43;;;;;;;4.18;63.63;98701.34;10311957;28;20053;-68
2022/02/14 07:54:11;;;;;;;9.25;5.40;;;;;;;4.27;63.45;98703.47;10311818;28;20438;-69
2022/02/14 07:59:13;;;;;;;9.23;5.25;;;;;;;4.29;62.94;98699.03;10317861;28;20176;-69
2022/02/14 08:04:15;;;;;;;13.40;6.00;;;;;;;4.42;62.66;98711.22;10316152;28;20137;-69
2022/02/14 08:09:17;;;;;;;12.88;5.90;;;;;;;4.64;62.99;98701.34;10316909;28;20054;-68
2022/02/14 08:14:19;;;;;;;9.48;5.55;;;;;;;5.07;62.90;98686.84;10310858;28;20562;-69
2022/02/14 08:19:20;;;;;;;13.15;6.63;;;;;;;5.29;62.45;98699.38;10311965;28;20058;-69
2022/02/14 08:24:22;;;;;;;13.95;6.68;;;;;;;6.01;61.92;98681.22;10316308;28;20435;-70
2022/02/14 08:29:29;;;;;;;12.23;5.80;;;;;;;6.80;61.04;98677.09;10336038;28;20065;-70
2022/02/14 08:34:31;;;;;;;13.00;5.22;;;;;;;7.49;60.25;98675.06;10308675;28;20137;-69
2022/02/14 08:39:32;;;;;;;10.55;4.90;;;;;;;8.09;59.40;98671.84;10306910;28;20706;-71
2022/02/14 08:44:34;;;;;;;8.05;4.38;;;;;;;8.04;58.84;98659.13;10307216;28;20243;-70
2022/02/14 08:49:37;;;;;;;8.35;3.40;;;;;;;8.13;58.81;98657.69;10308595;28;20056;-71
2022/02/14 08:54:39;;;;;;;10.38;3.13;;;;;;;8.73;57.89;98663.75;10313819;28;20164;-70
2022/02/14 08:59:40;;;;;;;8.63;3.20;;;;;;;9.07;57.02;98660.38;10308065;28;20141;-69
2022/02/14 09:04:42;;;;;;;9.20;3.00;;;;;;;9.15;57.04;98652.81;10308487;28;20225;-71
2022/02/14 09:09:44;;;;;;;9.73;3.00;;;;;;;9.22;56.71;98654.00;10309406;28;20133;-71
2022/02/14 09:14:46;;;;;;;6.25;2.42;;;;;;;9.11;56.53;98650.53;10307732;28;20441;-70
2022/02/14 09:19:47;;;;;;;8.80;2.83;;;;;;;9.22;56.42;98650.59;10309198;28;20053;-70
2022/02/14 09:24:49;;;;;;;9.85;2.67;;;;;;;9.11;56.73;98654.00;10313622;28;20046;-71
2022/02/14 09:29:51;;;;;;;8.23;2.70;;;;;;;9.18;56.69;98639.53;10307142;28;20640;-70
2022/02/14 09:34:53;;;;;;;8.80;2.60;;;;;;;9.14;56.77;98634.66;10318730;28;20045;-71
2022/02/14 09:39:54;;;;;;;6.57;2.63;;;;;;;9.41;56.35;98633.44;10307328;28;20149;-71
2022/02/14 09:44:57;;;;;;;7.93;2.83;;;;;;;9.49;56.28;98644.13;10314321;28;20051;-71
2022/02/14 09:49:58;;;;;;;7.90;2.50;;;;;;;9.54;56.13;98641.97;10308224;28;20407;-70
2022/02/14 09:55:00;;;;;;;6.03;2.67;;;;;;;10.08;55.40;98641.34;10306818;28;20085;-71
2022/02/14 10:00:03;;;;;;;9.50;3.00;;;;;;;10.46;54.60;98639.16;10306793;28;20082;-70
2022/02/14 10:05:07;;;;;;;9.23;3.35;;;;;;;10.62;54.08;98647.44;10308586;28;20044;-70
2022/02/14 10:10:16;;;;;;;12.23;6.72;;;;;;;11.14;53.38;98639.66;10304994;28;20056;-71
2022/02/14 10:15:19;;;;;;;15.68;3.90;;;;;;;11.53;52.25;98640.75;10305593;28;20140;-71
2022/02/14 10:20:23;;;;;;;7.03;2.67;;;;;;;11.16;52.45;98645.59;10309896;28;20145;-71
2022/02/14 10:25:34;;;;;;;9.15;2.70;;;;;;;11.11;52.53;98639.91;10318555;28;20277;-71
2022/02/14 10:31:17;;;;;;;8.95;4.10;;;;;;;11.15;52.24;98649.16;10306745;28;20534;-71
2022/02/14 10:36:29;;;;;;;6.78;2.65;;;;;;;11.37;51.99;98643.00;10305563;28;20399;-70
2022/02/14 10:41:31;;;;;;;5.32;2.17;;;;;;;11.57;52.31;98651.78;10308075;28;20143;-70
2022/02/14 10:46:40;;;;;;;8.20;2.42;;;;;;;11.71;52.18;98643.59;10319306;28;20046;-71
2022/02/14 10:51:46;;;;;;;8.82;2.40;;;;;;;11.65;51.93;98650.19;10328517;28;20082;-71
2022/02/14 10:56:48;;;;;;;6.20;2.30;;;;;;;11.71;52.11;98646.22;10305105;28;20056;-70
2022/02/14 11:01:50;;;;;;;6.15;2.33;;;;;;;12.00;51.92;98648.03;10306254;28;20054;-70
2022/02/14 11:06:53;;;;;;;7.00;1.98;;;;;;;11.69;52.05;98645.53;10313009;28;20085;-71
2022/02/14 11:11:56;;;;;;;5.85;2.20;;;;;;;11.74;52.19;98636.34;10325783;28;20042;-71
2022/02/14 11:17:01;;;;;;;3.97;2.00;;;;;;;11.69;52.33;98635.88;10319882;28;20422;-66
2022/02/14 11:22:04;;;;;;;6.63;2.10;;;;;;;11.48;52.68;98647.34;10320107;28;20451;-65
2022/02/14 11:27:10;;;;;;;4.60;1.90;;;;;;;11.41;52.79;98647.03;10310934;28;20137;-65
2022/02/14 11:32:26;;;;;;;3.08;1.77;;;;;;;11.24;52.81;98648.41;10311676;28;20054;-65
2022/02/14 11:37:46;;;;;;;3.58;1.90;;;;;;;11.46;52.69;98644.84;10320192;28;20058;-64
2022/02/14 11:43:12;;;;;;;4.28;2.08;;;;;;;11.43;52.60;98639.03;10311913;28;20149;-65
2022/02/14 11:48:27;;;;;;;7.13;2.05;;;;;;;11.74;51.91;98632.88;10320580;28;20125;-65
2022/02/14 11:53:43;;;;;;;4.75;1.90;;;;;;;11.72;52.33;98640.84;10310469;28;20042;-65
2022/02/14 11:59:10;;;;;;;;;;;;;;;11.29;52.86;98646.22;10312624;28;20054;-65
2022/02/14 12:04:35;;;;;;;7.05;1.88;;;;;;;11.20;52.95;98644.41;10311300;28;19960;-65
2022/02/14 12:09:55;;;;;;;5.20;1.85;;;;;;;11.15;52.94;98643.94;10311375;28;20137;-66
2022/02/14 12:20:34;;;;;;;4.28;2.00;;;;;;;11.08;53.90;98655.88;10309543;28;20054;-66
2022/02/14 12:25:47;;;;;;;3.92;1.80;;;;;;;11.37;53.46;98650.84;10314341;28;20047;-66
2022/02/14 12:30:49;;;;;;;4.78;2.05;;;;;;;11.70;53.08;98637.53;10308916;28;20058;-67
2022/02/14 12:35:57;;;;;;;5.03;2.30;;;;;;;11.32;53.51;98656.47;10315131;28;20521;-66
2022/02/14 12:41:02;;;;;;;6.78;2.50;;;;;;;11.02;54.37;98664.19;10318816;28;20458;-66
2022/02/14 12:46:04;;;;;;;4.72;2.10;;;;;;;10.86;55.11;98661.16;10310053;28;20076;-66
2022/02/14 12:51:26;;;;;;;13.38;6.15;;;;;;;10.66;55.91;98668.94;10305209;28;20561;-66
2022/02/14 12:56:37;;;;;;;10.57;5.03;;;;;;;10.80;55.79;98666.88;10310083;28;20042;-66
2022/02/14 13:01:45;;;;;;;4.13;2.38;;;;;;;11.23;54.59;98657.22;10320082;28;20050;-67
2022/02/14 13:06:51;;;;;;;9.75;3.90;;;;;;;11.40;54.47;98666.28;10308310;28;20092;-66
2022/02/14 13:11:59;;;;;;;6.35;1.92;;;;;;;11.44;53.77;98667.69;10315678;28;20046;-66
2022/02/14 13:17:03;;;;;;;6.10;2.20;;;;;;;11.47;54.05;98674.47;10307585;28;20072;-67
2022/02/14 13:22:06;;;;;;;2.75;1.58;;;;;;;11.30;54.20;98674.09;10313885;28;20050;-64
2022/02/14 13:27:09;;;;;;;2.42;1.70;;;;;;;11.26;53.51;98680.53;10308722;28;20060;-65
2022/02/14 13:32:17;;;;;;;2.75;1.27;;;;;;;11.38;50.76;98670.81;10323635;28;20275;-64
2022/02/14 13:37:26;;;;;;;2.38;1.20;;;;;;;11.24;51.55;98669.34;10317816;28;20057;-65
2022/02/14 13:42:27;;;;;;;2.38;1.10;;;;;;;11.12;50.71;98672.16;10305919;28;20072;-64
2022/02/14 13:47:29;;;;;;;2.30;1.20;;;;;;;10.96;48.87;98671.69;10323078;28;20050;-64
2022/02/14 13:52:31;;;;;;;2.05;1.02;;;;;;;11.10;49.12;98669.66;10304869;28;20137;-65
2022/02/14 13:57:33;;;;;;;2.20;1.20;;;;;;;11.34;48.31;98664.19;10312627;28;20050;-65
2022/02/14 14:02:35;;;;;;;3.35;1.17;;;;;;;11.38;47.77;98668.22;10312580;28;20251;-65
2022/02/14 14:07:46;;;;;;;3.15;1.30;;;;;;;11.41;47.55;98667.13;10322372;28;20050;-65
2022/02/14 14:12:51;;;;;;;3.20;1.30;;;;;;;11.24;47.37;98677.22;10311880;28;21826;-66
2022/02/14 14:17:53;;;;;;;2.80;1.20;;;;;;;11.00;48.26;98678.34;10313152;28;20058;-65
2022/02/14 14:22:56;;;;;;;3.67;1.20;;;;;;;10.62;48.69;98681.44;10313483;28;20042;-65
2022/02/14 14:27:58;;;;;;;3.80;1.33;;;;;;;10.49;49.06;98685.97;10318126;28;20392;-65
2022/02/14 14:33:00;;;;;;;3.28;1.40;;;;;;;10.29;49.59;98681.47;10314838;28;20058;-65
2022/02/14 14:38:03;;;;;;;3.38;1.20;;;;;;;10.35;49.74;98696.66;10310806;28;20717;-65
2022/02/14 14:43:05;;;;;;;4.85;1.30;;;;;;;10.42;49.33;98688.22;10320416;28;20145;-65
2022/02/14 14:48:13;;;;;;;4.32;1.40;;;;;;;10.57;49.38;98690.56;10311444;28;20715;-65
2022/02/14 14:53:15;;;;;;;3.28;1.15;;;;;;;10.58;49.14;98698.31;10312160;28;20048;-65
2022/02/14 14:58:18;;;;;;;2.83;1.27;;;;;;;10.61;48.81;98702.44;10318365;28;20050;-65
2022/02/14 15:03:19;;;;;;;3.40;1.70;;;;;;;10.59;48.70;98706.97;10315153;28;20115;-66
2022/02/14 15:08:21;;;;;;;5.95;1.65;;;;;;;10.52;48.56;98716.25;10321100;28;20042;-65
2022/02/14 15:13:23;;;;;;;6.55;3.00;;;;;;;10.39;48.45;98722.47;10309820;28;20117;-66
2022/02/14 15:18:25;;;;;;;6.05;2.25;;;;;;;10.33;48.34;98715.09;10316445;28;20054;-65
2022/02/14 15:23:27;;;;;;;5.15;2.20;;;;;;;10.21;48.04;98728.28;10309446;28;20844;-66
2022/02/14 15:28:30;;;;;;;7.43;4.07;;;;;;;10.24;47.91;98730.63;10324634;28;20056;-66
2022/02/14 15:33:33;;;;;;;5.22;1.45;;;;;;;10.10;48.01;98743.94;10308515;28;20149;-66
2022/02/14 15:38:36;;;;;;;3.45;1.50;;;;;;;9.95;48.15;98747.72;10313584;28;20411;-66
2022/02/14 15:43:39;;;;;;;3.30;1.25;;;;;;;9.83;48.26;98752.06;10304159;28;20042;-66
2022/02/14 15:48:41;;;;;;;4.50;1.52;;;;;;;9.79;48.65;98755.06;10305956;28;20061;-66
2022/02/14 15:53:43;;;;;;;5.45;1.83;;;;;;;9.82;48.61;98760.88;10322428;28;20050;-66
2022/02/14 15:58:45;;;;;;;5.57;1.42;;;;;;;9.71;48.84;98765.25;10316848;28;20050;-66
2022/02/14 16:03:46;;;;;;;8.75;1.95;;;;;;;9.67;49.23;98774.25;10313497;28;20054;-66
2022/02/14 16:08:48;;;;;;;5.60;1.65;;;;;;;9.60;49.43;98777.28;10313929;28;20529;-66
2022/02/14 16:13:50;;;;;;;6.15;1.88;;;;;;;9.61;49.73;98778.09;10316293;28;20129;-66
2022/02/14 16:18:56;;;;;;;5.53;1.48;;;;;;;9.65;49.78;98784.75;10308492;28;20493;-65
2022/02/14 16:23:57;;;;;;;2.45;1.23;;;;;;;9.61;49.98;98784.16;10308840;28;20133;-65
2022/02/14 16:28:59;;;;;;;5.78;1.75;;;;;;;9.56;50.04;98795.88;10309406;28;20149;-65
2022/02/14 16:34:01;;;;;;;3.72;1.48;;;;;;;9.47;50.03;98800.00;10308261;28;20082;-65
2022/02/14 16:39:03;;;;;;;4.22;1.70;;;;;;;9.43;50.30;98808.16;10312852;28;20066;-66
2022/02/14 16:44:07;;;;;;;10.50;2.10;;;;;;;9.33;50.40;98823.66;10321656;28;20056;-66
2022/02/14 16:49:09;;;;;;;7.85;1.98;;;;;;;9.30;50.58;98826.47;10341356;28;20302;-66
2022/02/14 16:54:11;;;;;;;6.20;1.50;;;;;;;9.37;50.58;98830.31;10329604;28;20092;-66
2022/02/14 16:59:13;;;;;;;5.38;1.40;;;;;;;9.40;50.39;98837.91;10322897;28;20404;-66
2022/02/14 17:04:15;;;;;;;4.45;1.75;;;;;;;9.40;50.71;98847.53;10322550;28;20116;-66
2022/02/14 17:09:16;;;;;;;4.97;1.60;;;;;;;9.35;50.68;98850.47;10303354;28;20050;-66
2022/02/14 17:14:18;;;;;;;4.68;1.73;;;;;;;9.32;50.87;98852.47;10308720;28;20050;-66
2022/02/14 17:19:20;;;;;;;8.10;2.70;;;;;;;9.32;51.04;98868.94;10326072;28;20049;-66
2022/02/14 17:24:22;;;;;;;6.00;2.13;;;;;;;9.25;51.04;98869.50;10302920;28;20149;-66
2022/02/14 17:29:24;;;;;;;7.75;2.40;;;;;;;9.24;51.29;98879.09;10342686;28;20054;-66
2022/02/14 17:34:26;;;;;;;13.65;5.47;;;;;;;9.22;51.38;98883.56;10325388;28;20593;-65
2022/02/14 17:39:28;;;;;;;10.55;4.78;;;;;;;9.11;51.41;98886.13;10303233;28;20249;-66
2022/02/14 17:44:30;;;;;;;8.82;3.92;;;;;;;8.92;51.58;98887.50;10310952;28;20487;-66
2022/02/14 17:49:32;;;;;;;10.27;5.20;;;;;;;8.94;51.91;98885.63;10303102;28;20558;-66
2022/02/14 17:54:34;;;;;;;14.50;7.10;;;;;;;8.87;51.64;98893.06;10317307;28;20125;-75
2022/02/14 17:59:36;;;;;;;7.85;2.05;;;;;;;8.81;51.73;98894.28;10313575;28;20081;-74
2022/02/14 18:04:38;;;;;;;4.43;2.05;;;;;;;8.70;51.69;98893.38;10311885;28;20046;-75
2022/02/14 18:09:40;;;;;;;5.28;1.58;;;;;;;8.60;52.14;98897.53;10304526;28;20144;-75
2022/02/14 18:14:42;;;;;;;5.85;1.98;;;;;;;8.52;52.42;98908.50;10312601;28;20050;-73
2022/02/14 18:19:44;;;;;;;6.03;2.03;;;;;;;8.31;52.77;98909.91;10316130;28;20101;-74
2022/02/14 18:24:47;;;;;;;6.85;1.85;;;;;;;8.30;53.06;98917.84;10316487;28;20192;-73
2022/02/14 18:29:48;;;;;;;8.27;2.00;;;;;;;8.23;53.16;98922.63;10318877;28;20050;-74
2022/02/14 18:34:50;;;;;;;4.55;1.65;;;;;;;8.29;53.16;98929.19;10316634;28;20061;-74
2022/02/14 18:39:52;;;;;;;7.60;2.10;;;;;;;8.27;53.43;98938.88;10315854;28;20509;-72
2022/02/14 18:45:14;;;;;;;5.55;2.10;;;;;;;8.15;53.61;98937.91;10305710;28;20057;-74
2022/02/14 18:50:17;;;;;;;6.07;1.88;;;;;;;8.08;53.71;98943.59;10320574;28;20046;-73
2022/02/14 18:55:19;;;;;;;6.03;1.80;;;;;;;8.00;53.81;98934.50;10312270;28;20042;-72
2022/02/14 19:00:20;;;;;;;5.50;1.60;;;;;;;7.97;54.36;98928.66;10316837;28;20057;-72
2022/02/14 19:05:23;;;;;;;5.28;1.60;;;;;;;7.91;54.21;98935.13;10305428;28;20156;-74
2022/02/14 19:10:25;;;;;;;5.00;1.75;;;;;;;7.80;54.44;98939.31;10328785;28;20049;-73
2022/02/14 19:15:27;;;;;;;6.00;1.90;;;;;;;7.75;54.51;98938.78;10321976;28;20494;-75
2022/02/14 19:20:31;;;;;;;5.82;1.88;;;;;;;7.71;54.43;98939.94;10306502;28;20132;-74
2022/02/14 19:25:35;;;;;;;8.10;2.15;;;;;;;7.62;54.91;98943.94;10311634;28;20308;-73
2022/02/14 19:30:37;;;;;;;8.52;3.00;;;;;;;7.54;54.92;98946.19;10325627;28;20064;-74
2022/02/14 19:35:39;;;;;;;8.30;2.20;;;;;;;7.42;55.26;98959.97;10314137;28;20046;-73
2022/02/14 19:40:41;;;;;;;5.88;1.70;;;;;;;7.37;55.42;98962.00;10308782;28;20046;-73
2022/02/14 19:45:43;;;;;;;9.63;2.35;;;;;;;7.29;55.48;98961.66;10318339;28;20053;-75
2022/02/14 19:50:47;;;;;;;8.05;2.35;;;;;;;7.20;55.91;98972.63;10311210;28;20054;-74
2022/02/14 19:55:51;;;;;;;9.52;3.75;;;;;;;7.09;56.04;98975.03;10324473;28;20053;-72
2022/02/14 20:00:54;;;;;;;12.90;5.50;;;;;;;6.99;56.28;98982.56;10320246;28;20402;-73
2022/02/14 20:05:56;;;;;;;10.75;2.50;;;;;;;6.94;56.71;98999.34;10320125;28;20046;-72
2022/02/14 20:10:58;;;;;;;6.38;2.15;;;;;;;6.81;57.03;98995.81;10325599;28;20061;-73
2022/02/14 20:16:00;;;;;;;10.55;3.45;;;;;;;6.71;57.36;99000.72;10322456;28;20050;-73
2022/02/14 20:21:02;;;;;;;7.40;2.40;;;;;;;6.57;57.79;99005.84;10319896;28;20054;-72
2022/02/14 20:26:04;;;;;;;9.88;2.20;;;;;;;6.46;58.26;99015.22;10322442;28;20191;-73
2022/02/14 20:31:06;;;;;;;9.23;2.25;;;;;;;6.37;58.49;98995.78;10322933;28;20169;-74
2022/02/14 20:36:08;;;;;;;8.02;1.95;;;;;;;6.33;58.62;98997.72;10323775;28;20148;-72
2022/02/14 20:41:10;;;;;;;7.72;2.13;;;;;;;6.39;58.54;99008.72;10321639;28;20590;-73
2022/02/14 20:46:12;;;;;;;8.27;2.00;;;;;;;6.39;58.50;99021.69;10323533;28;20037;-73
2022/02/14 20:51:14;;;;;;;10.75;2.22;;;;;;;6.42;58.47;99022.34;10333016;28;20161;-72
2022/02/14 20:56:19;;;;;;;4.95;1.75;;;;;;;6.45;58.43;99024.75;10320449;28;20038;-73
2022/02/14 21:01:21;;;;;;;7.32;2.30;;;;;;;6.41;58.45;99032.84;10321306;28;20050;-75
2022/02/14 21:06:22;;;;;;;10.63;2.22;;;;;;;6.37;58.54;99034.75;10317965;28;20054;-73
2022/02/14 21:11:24;;;;;;;5.90;2.03;;;;;;;6.30;58.71;99036.03;10329081;28;20053;-75
2022/02/14 21:16:26;;;;;;;10.80;2.50;;;;;;;6.15;59.08;99042.88;10323187;28;20041;-74
2022/02/14 21:21:28;;;;;;;12.00;3.40;;;;;;;6.02;59.38;99036.69;10319496;28;20147;-73
2022/02/14 21:26:29;;;;;;;10.13;3.40;;;;;;;5.92;59.53;99030.31;10329186;28;20068;-74
2022/02/14 21:31:31;;;;;;;9.48;3.17;;;;;;;5.85;59.62;99039.38;10316491;28;20056;-74
2022/02/14 21:36:33;;;;;;;11.93;4.10;;;;;;;5.84;59.67;99050.66;10320912;28;20057;-73
2022/02/14 21:41:35;;;;;;;8.18;2.20;;;;;;;5.83;59.55;99054.19;10324361;28;20050;-72
2022/02/14 21:46:37;;;;;;;8.85;2.30;;;;;;;5.81;59.60;99048.25;10326719;28;20042;-72
2022/02/14 21:51:40;;;;;;;8.60;2.53;;;;;;;5.76;59.74;99052.84;10321160;28;20494;-73
2022/02/14 21:56:42;;;;;;;6.57;2.22;;;;;;;5.68;59.68;99057.63;10315615;28;20411;-73
2022/02/14 22:01:44;;;;;;;10.68;3.00;;;;;;;5.62;59.94;99060.53;10321656;28;20054;-73
2022/02/14 22:12:09;;;;;;;8.27;2.60;;;;;;;5.46;60.35;99073.50;10320563;28;20525;-73
2022/02/14 22:17:10;;;;;;;9.40;4.80;;;;;;;5.38;60.53;99064.44;10318133;28;20195;-73
2022/02/14 22:22:14;;;;;;;10.13;3.95;;;;;;;5.28;60.66;99079.63;10306519;28;20054;-73
2022/02/14 22:27:16;;;;;;;11.98;7.20;;;;;;;5.12;61.09;99075.31;10322054;28;20129;-72
2022/02/14 22:32:17;;;;;;;10.18;3.53;;;;;;;5.02;61.19;99082.72;10328162;28;20136;-73
2022/02/14 22:37:19;;;;;;;13.80;8.80;;;;;;;4.89;61.10;99076.47;10312632;28;20057;-72
2022/02/14 22:42:22;;;;;;;12.23;3.53;;;;;;;4.69;61.47;99085.25;10311373;28;20054;-73
2022/02/14 22:47:25;;;;;;;8.43;3.08;;;;;;;4.56;61.70;99073.81;10304267;28;20054;-73
2022/02/14 22:52:26;;;;;;;10.85;3.10;;;;;;;4.46;62.30;99079.50;10310715;28;20156;-72
2022/02/14 22:57:28;;;;;;;8.95;2.72;;;;;;;4.39;62.24;99083.31;10303551;28;20054;-72
2022/02/14 23:18:32;;;;;;;7.53;2.60;;;;;;;4.32;62.87;99080.16;10311708;28;20061;-72
2022/02/14 23:23:33;;;;;;;8.77;3.25;;;;;;;4.32;62.90;99077.59;10311820;28;20058;-73
2022/02/14 23:28:35;;;;;;;8.90;2.97;;;;;;;4.29;63.02;99097.59;10311277;28;20133;-72
2022/02/14 23:33:37;;;;;;;10.45;3.33;;;;;;;4.32;63.11;99093.09;10318723;28;20145;-72
2022/02/14 23:38:39;;;;;;;10.95;3.63;;;;;;;4.30;63.22;99094.09;10319671;28;20356;-73
2022/02/14 23:43:41;;;;;;;10.93;5.25;;;;;;;4.13;63.13;99097.47;10322601;28;20042;-72
2022/02/14 23:48:43;;;;;;;10.70;4.07;;;;;;;4.00;63.03;99098.13;10310859;28;20667;-73
2022/02/14 23:53:47;;;;;;;10.02;2.60;;;;;;;3.95;63.88;99093.16;10309602;28;20050;-73
2022/02/14 23:58:48;;;;;;;10.82;2.80;;;;;;;4.14;63.98;99103.50;10311723;28;20328;-73
